createdAt,value
2019-05-09T00:02:04.091Z,98395.35
2019-05-09T00:07:26.031Z,98380.57
2019-05-09T00:12:47.803Z,98379.96
2019-05-09T00:18:09.375Z,98374.97
2019-05-09T00:23:30.707Z,98371.08
2019-05-09T00:28:56.487Z,98363.84
2019-05-09T00:34:37.886Z,98363.69
2019-05-09T00:39:59.526Z,98353.16
2019-05-09T00:45:35.231Z,98353.17
2019-05-09T00:50:56.530Z,98344.90
2019-05-09T00:56:18.298Z,98337.00
2019-05-09T01:01:40.138Z,98346.02
2019-05-09T01:07:03.462Z,98347.84
2019-05-09T01:12:25.446Z,98337.67
2019-05-09T01:17:47.153Z,98330.98
2019-05-09T01:23:08.822Z,98322.69
2019-05-09T01:28:30.484Z,98323.86
2019-05-09T01:34:20.691Z,98336.20
2019-05-09T01:39:44.047Z,98326.98
2019-05-09T01:45:06.325Z,98319.30
2019-05-09T01:50:28.091Z,98318.70
2019-05-09T01:55:58.816Z,98329.41
2019-05-09T02:01:20.401Z,98328.10
2019-05-09T02:06:44.061Z,98333.20
2019-05-09T02:12:05.686Z,98327.23
2019-05-09T02:18:00.613Z,98313.78
2019-05-09T02:23:16.454Z,98317.27
2019-05-09T02:28:38.178Z,98312.98
2019-05-09T02:33:59.802Z,98319.80
2019-05-09T02:39:21.331Z,98314.20
2019-05-09T02:44:43.097Z,98314.39
2019-05-09T02:50:09.019Z,98313.28
2019-05-09T02:55:29.871Z,98313.73
2019-05-09T03:01:23.070Z,98305.52
2019-05-09T03:06:44.812Z,98303.66
2019-05-09T03:12:22.660Z,98299.01
2019-05-09T03:17:30.444Z,98292.49
2019-05-09T03:22:51.971Z,98290.50
2019-05-09T03:28:28.206Z,98288.49
2019-05-09T03:33:50.282Z,98287.73
2019-05-09T03:39:12.316Z,98287.91
2019-05-09T03:44:33.990Z,98282.12
2019-05-09T03:50:09.793Z,98282.53
2019-05-09T03:55:34.660Z,98297.47
2019-05-09T04:00:58.006Z,98296.92
2019-05-09T04:06:19.638Z,98278.27
2019-05-09T04:11:41.386Z,98271.84
2019-05-09T04:17:03.203Z,98281.28
2019-05-09T04:22:27.079Z,98281.44
2019-05-09T04:27:50.233Z,98285.78
2019-05-09T04:33:12.283Z,98287.75
2019-05-09T04:38:34.180Z,98282.98
2019-05-09T04:43:57.481Z,98284.22
2019-05-09T04:49:19.239Z,98280.56
2019-05-09T04:54:41.371Z,98283.14
2019-05-09T05:00:03.580Z,98279.97
2019-05-09T05:05:25.552Z,98271.37
2019-05-09T05:10:47.778Z,98263.34
2019-05-09T05:16:09.675Z,98266.34
2019-05-09T05:21:31.297Z,98266.24
2019-05-09T05:26:52.914Z,98257.95
2019-05-09T05:32:21.859Z,98264.34
2019-05-09T05:37:43.401Z,98268.55
2019-05-09T05:43:05.183Z,98267.58
2019-05-09T05:48:29.089Z,98265.94
2019-05-09T05:53:52.369Z,98271.82
2019-05-09T05:59:14.144Z,98264.54
2019-05-09T06:04:37.912Z,98259.84
2019-05-09T06:09:59.386Z,98258.59
2019-05-09T06:15:20.850Z,98258.78
2019-05-09T06:20:45.453Z,98258.35
2019-05-09T06:26:09.696Z,98247.65
2019-05-09T06:31:29.865Z,98250.52
2019-05-09T06:36:51.510Z,98266.14
2019-05-09T06:42:13.233Z,98246.11
2019-05-09T06:47:38.074Z,98235.38
2019-05-09T06:52:59.920Z,98233.09
2019-05-09T06:58:30.859Z,98232.09
2019-05-09T07:03:57.520Z,98225.36
2019-05-09T07:09:31.877Z,98231.00
2019-05-09T07:14:53.784Z,98225.75
2019-05-09T07:20:18.108Z,98215.02
2019-05-09T07:25:58.923Z,98211.33
2019-05-09T07:31:31.003Z,98202.09
2019-05-09T07:36:52.846Z,98198.92
2019-05-09T07:42:14.175Z,98186.78
2019-05-09T07:47:36.079Z,98191.11
2019-05-09T07:52:58.297Z,98187.63
2019-05-09T07:58:19.882Z,98193.66
2019-05-09T08:03:41.707Z,98182.80
2019-05-09T08:09:08.363Z,98190.59
2019-05-09T08:14:31.601Z,98189.84
2019-05-09T08:19:53.257Z,98187.97
2019-05-09T08:25:15.131Z,98187.11
2019-05-09T08:30:40.073Z,98185.86
2019-05-09T08:36:00.615Z,98187.19
2019-05-09T08:41:22.193Z,98188.88
2019-05-09T08:46:43.802Z,98174.35
2019-05-09T08:52:16.091Z,98180.88
2019-05-09T08:57:34.777Z,98161.02
2019-05-09T09:02:57.412Z,98150.50
2019-05-09T09:08:19.618Z,98143.17
2019-05-09T09:13:41.345Z,98127.68
2019-05-09T09:19:03.096Z,98133.60
2019-05-09T09:24:24.931Z,98118.89
2019-05-09T09:29:48.136Z,98108.06
2019-05-09T09:35:10.521Z,98104.82
2019-05-09T09:40:32.024Z,98095.16
2019-05-09T09:46:10.131Z,98077.56
2019-05-09T09:51:18.566Z,98068.29
2019-05-09T09:56:47.835Z,98068.29
2019-05-09T10:02:10.518Z,98069.74
2019-05-09T10:07:32.386Z,98071.19
2019-05-09T10:12:54.331Z,98077.95
2019-05-09T10:18:41.536Z,98061.49
2019-05-09T10:24:03.111Z,98062.47
2019-05-09T10:29:24.772Z,98050.61
2019-05-09T10:40:21.124Z,98041.47
2019-05-09T10:46:16.402Z,98037.72
2019-05-09T10:51:38.146Z,98027.05
2019-05-09T10:57:00.145Z,98021.78
2019-05-09T11:02:21.875Z,98026.95
2019-05-09T11:07:43.674Z,98009.08
2019-05-09T11:13:07.579Z,98004.52
2019-05-09T11:18:28.761Z,97999.44
2019-05-09T11:23:50.460Z,97989.70
2019-05-09T11:29:12.517Z,97989.95
2019-05-09T11:34:34.096Z,97987.47
2019-05-09T11:39:57.801Z,97983.16
2019-05-09T11:45:19.286Z,97973.72
2019-05-09T11:50:40.694Z,97962.92
2019-05-09T11:56:02.312Z,97965.94
2019-05-09T12:01:23.657Z,97957.96
2019-05-09T12:06:45.659Z,97955.22
2019-05-09T12:12:07.352Z,97955.25
2019-05-09T12:17:40.804Z,97949.63
2019-05-09T12:22:52.513Z,97938.53
2019-05-09T12:28:14.593Z,97929.97
2019-05-09T12:33:36.130Z,97920.81
2019-05-09T12:38:59.058Z,97917.81
2019-05-09T12:44:24.756Z,97904.05
2019-05-09T12:49:44.916Z,97901.39
2019-05-09T12:55:08.183Z,97893.17
2019-05-09T13:00:30.884Z,97887.38
2019-05-09T13:05:52.342Z,97882.84
2019-05-09T13:11:13.636Z,97880.66
2019-05-09T13:16:52.499Z,97861.59
2019-05-09T13:22:12.604Z,97851.87
2019-05-09T13:27:34.325Z,97845.67
2019-05-09T13:32:56.018Z,97838.83
2019-05-09T13:38:18.046Z,97825.93
2019-05-09T13:43:47.728Z,97813.66
2019-05-09T13:49:11.411Z,97800.18
2019-05-09T13:54:28.552Z,97817.50
2019-05-09T13:59:50.579Z,97790.19
2019-05-09T14:05:12.277Z,97798.30
2019-05-09T14:10:34.011Z,97791.01
2019-05-09T14:15:57.663Z,97788.62
2019-05-09T14:21:24.382Z,97789.05
2019-05-09T14:26:43.877Z,97785.83
2019-05-09T14:32:05.839Z,97793.17
2019-05-09T14:37:28.411Z,97789.13
2019-05-09T14:42:50.147Z,97776.58
2019-05-09T14:48:11.903Z,97778.14
2019-05-09T14:53:33.962Z,97769.88
2019-05-09T14:58:57.721Z,97764.62
2019-05-09T15:04:19.452Z,97757.48
2019-05-09T15:09:41.494Z,97747.96
2019-05-09T15:15:03.468Z,97743.67
2019-05-09T15:20:25.099Z,97737.28
2019-05-09T15:25:48.050Z,97732.60
2019-05-09T15:31:09.904Z,97718.19
2019-05-09T15:36:31.855Z,97716.39
2019-05-09T15:41:53.621Z,97721.63
2019-05-09T15:47:21.716Z,97708.78
2019-05-09T15:52:44.266Z,97705.39
2019-05-09T15:58:05.904Z,97706.50
2019-05-09T16:03:28.003Z,97704.63
2019-05-09T16:08:49.713Z,97699.48
2019-05-09T16:14:11.047Z,97692.69
2019-05-09T16:19:32.669Z,97697.69
2019-05-09T16:24:53.923Z,97698.87
2019-05-09T16:30:15.474Z,97695.95
2019-05-09T16:35:38.139Z,97686.91
2019-05-09T16:40:59.921Z,97688.32
2019-05-09T16:46:22.214Z,97680.93
2019-05-09T16:51:43.743Z,97676.91
2019-05-09T16:57:08.092Z,97681.75
2019-05-09T17:02:28.847Z,97678.33
2019-05-09T17:07:52.388Z,97675.05
2019-05-09T17:13:14.981Z,97654.59
2019-05-09T17:18:38.187Z,97660.77
2019-05-09T17:24:00.032Z,97660.77
2019-05-09T17:29:24.581Z,97668.03
2019-05-09T17:34:47.595Z,97654.10
2019-05-09T17:40:15.953Z,97654.10
2019-05-09T17:45:41.093Z,97659.01
2019-05-09T17:51:00.225Z,97667.67
2019-05-09T17:56:22.025Z,97676.74
2019-05-09T18:01:43.868Z,97683.76
2019-05-09T18:07:08.534Z,97681.46
2019-05-09T18:12:29.496Z,97683.59
2019-05-09T18:17:54.139Z,97690.64
2019-05-09T18:23:17.664Z,97691.60
2019-05-09T18:28:40.413Z,97708.67
2019-05-09T18:34:02.709Z,97703.89
2019-05-09T18:39:24.668Z,97716.33
2019-05-09T18:44:47.638Z,97709.37
2019-05-09T18:50:09.877Z,97715.66
2019-05-09T18:55:31.459Z,97721.13
2019-05-09T19:00:52.819Z,97723.59
2019-05-09T19:06:14.585Z,97726.94
2019-05-09T19:11:36.288Z,97726.91
2019-05-09T19:17:23.487Z,97722.89
2019-05-09T19:22:45.294Z,97728.80
2019-05-09T19:28:06.939Z,97717.84
2019-05-09T19:33:28.442Z,97723.34
2019-05-09T19:38:57.362Z,97722.13
2019-05-09T19:44:19.099Z,97724.52
2019-05-09T19:49:41.247Z,97713.83
2019-05-09T19:55:02.783Z,97722.71
2019-05-09T20:00:24.718Z,97704.75
2019-05-09T20:05:46.256Z,97705.69
2019-05-09T20:11:36.367Z,97704.84
2019-05-09T20:16:58.568Z,97709.50
2019-05-09T20:22:22.102Z,97710.62
2019-05-09T20:27:44.382Z,97723.09
2019-05-09T20:33:06.184Z,97709.84
2019-05-09T20:38:27.714Z,97712.45
2019-05-09T20:43:49.505Z,97704.55
2019-05-09T20:49:11.141Z,97693.78
2019-05-09T20:54:32.623Z,97689.14
2019-05-09T20:59:54.016Z,97703.59
2019-05-09T21:05:15.958Z,97694.28
2019-05-09T21:10:37.639Z,97696.63
2019-05-09T21:15:59.198Z,97701.81
2019-05-09T21:21:20.881Z,97726.68
2019-05-09T21:26:43.062Z,97713.50
2019-05-09T21:32:04.545Z,97714.81
2019-05-09T21:37:26.537Z,97712.70
2019-05-09T21:42:48.360Z,97718.04
2019-05-09T21:48:10.130Z,97715.09
2019-05-09T21:53:40.479Z,97709.30
2019-05-09T21:58:55.410Z,97711.33
2019-05-09T22:04:17.086Z,97712.75
2019-05-09T22:09:39.217Z,97715.81
2019-05-09T22:15:03.796Z,97708.17
2019-05-09T22:20:24.775Z,97713.50
2019-05-09T22:25:46.319Z,97710.23
2019-05-09T22:31:07.765Z,97718.14
2019-05-09T22:36:29.657Z,97707.31
2019-05-09T22:41:51.557Z,97710.25
2019-05-09T22:47:13.090Z,97706.03
2019-05-09T22:52:34.695Z,97701.98
2019-05-09T22:57:56.800Z,97693.19
2019-05-09T23:03:18.840Z,97685.98
2019-05-09T23:08:40.691Z,97690.14
2019-05-09T23:14:02.227Z,97683.39
2019-05-09T23:19:23.985Z,97681.86
2019-05-09T23:24:45.701Z,97680.05
2019-05-09T23:30:09.718Z,97675.86
2019-05-09T23:35:31.652Z,97672.44
2019-05-09T23:40:53.397Z,97671.58
2019-05-09T23:46:15.058Z,97672.40
2019-05-09T23:51:46.923Z,97667.55
2019-05-09T23:57:27.750Z,97671.38
